Otis, Kansas
Current Conditions -  °F | °C
As of 8:35 AM on Friday 24 Oct 2014 (Local Time) from KGBD Reporting Station
Clear Clear  
Wind Chill: 55°   Ceiling: Unl
Heat Index: 55°   Visibility: 3mi
Dew Point: 52°   Wind: 5mph
Humidity: 88%   Direction: 210°SSW
Pressure: 30.03"   Gusts: NA
Location:  38.53°N, 99.05°W
Report Text: KGBD 241335Z AUTO 21004KT 3SM CLR 13/11 A3003 RMK AO1
Loading
Personal Weather Stations






























Interactive Weather Map New forecast layout! Learn more

10-Day Weather Forecast

Advertisements
Track Severe Weather on mobile